Bootsie B, — WDF9484 — position and weather

sailwx.info

Track history (hours):
 
Tides and Currents Weather Stations Pressure Air Temp Water Temp Dewpoint Dewpoint Depression Visibility Wind Speed Wind Dir Waves Ship Positions

Bootsie B,

Owner: Marquette Transp[ortation Co. LLC, Paducah, KY. More information available from US FCC via Universal Licensing System and Coast Guard Vessel Documentation Center.

Last reported at 2015-Apr-23 22:27 UTC. Time now 2015-May-04 05:59 UTC.
Position N 30°45' W 091°26'.
Warning: this ship's position is 10 days out of date.

Length 57 m; draft 2 m.

Type: Towing. MMSI: 367505630.

Date/timePositionNaut miles runAvg speedWind from/ knotsBaromVisibWave heightAir tempDewpointWater temp
2015-Apr-23 22:27N 30°45' W 091°26'4 4.3
2015-Apr-23 21:32N 30°44' W 091°21'5 5.1
2015-Apr-23 20:29N 30°39' W 091°18'4 4.4
2015-Apr-23 19:33N 30°36' W 091°16'4 3.9
2015-Apr-23 18:33N 30°32' W 091°16'1 1.3
2015-Apr-23 17:33N 30°31' W 091°15'3 3.2
2015-Apr-23 16:33N 30°29' W 091°12'4 4.3
2015-Apr-23 15:33N 30°24' W 091°12'0 0.3
2015-Apr-23 14:33N 30°24' W 091°12'0 0.0
2015-Apr-23 13:33N 30°24' W 091°12'3 2.7
2015-Apr-23 12:33N 30°22' W 091°14'4 3.9
2015-Apr-23 11:31N 30°21' W 091°10'2 2.2
2015-Apr-23 10:33N 30°19' W 091°12'7 2.7
2015-Apr-23 08:08N 30°13' W 091°09'28 1.0
2015-Apr-22 05:17N 30°03' W 090°39'16 0.7
2015-Apr-21 08:13N 29°57' W 090°23'1 1.0
2015-Apr-21 07:33N 29°57' W 090°22'0 0.0
2015-Apr-21 06:33N 29°57' W 090°22'0 0.0
2015-Apr-21 05:33N 29°57' W 090°22'0 0.1
2015-Apr-21 04:29N 29°57' W 090°22'0 0.0
2015-Apr-21 03:33N 29°57' W 090°22'  
Track history (hours):
 
Tides and Currents Weather Stations Pressure Air Temp Water Temp Dewpoint Dewpoint Depression Visibility Wind Speed Wind Dir Waves Ship Positions

Bootsie B,

Owner: Marquette Transp[ortation Co. LLC, Paducah, KY. More information available from US FCC via Universal Licensing System and Coast Guard Vessel Documentation Center.

Last reported at 2015-Apr-23 22:27 UTC. Time now 2015-May-04 05:59 UTC.
Position N 30°45' W 091°26'.
Warning: this ship's position is 10 days out of date.

Length 57 m; draft 2 m.

Type: Towing. MMSI: 367505630.

Date/timePositionNaut miles runAvg speedWind from/ knotsBaromVisibWave heightAir tempDewpointWater temp
2015-Apr-23 22:27N 30°45' W 091°26'4 4.3
2015-Apr-23 21:32N 30°44' W 091°21'5 5.1
2015-Apr-23 20:29N 30°39' W 091°18'4 4.4
2015-Apr-23 19:33N 30°36' W 091°16'4 3.9
2015-Apr-23 18:33N 30°32' W 091°16'1 1.3
2015-Apr-23 17:33N 30°31' W 091°15'3 3.2
2015-Apr-23 16:33N 30°29' W 091°12'4 4.3
2015-Apr-23 15:33N 30°24' W 091°12'0 0.3
2015-Apr-23 14:33N 30°24' W 091°12'0 0.0
2015-Apr-23 13:33N 30°24' W 091°12'3 2.7
2015-Apr-23 12:33N 30°22' W 091°14'4 3.9
2015-Apr-23 11:31N 30°21' W 091°10'2 2.2
2015-Apr-23 10:33N 30°19' W 091°12'7 2.7
2015-Apr-23 08:08N 30°13' W 091°09'28 1.0
2015-Apr-22 05:17N 30°03' W 090°39'16 0.7
2015-Apr-21 08:13N 29°57' W 090°23'1 1.0
2015-Apr-21 07:33N 29°57' W 090°22'0 0.0
2015-Apr-21 06:33N 29°57' W 090°22'0 0.0
2015-Apr-21 05:33N 29°57' W 090°22'0 0.1
2015-Apr-21 04:29N 29°57' W 090°22'0 0.0
2015-Apr-21 03:33N 29°57' W 090°22'  

Dump ship's entire track history